createdAt,value
2022-08-05T00:01:29.650Z,4.95
2022-08-05T00:06:38.386Z,4.40
2022-08-05T00:11:49.190Z,4.18
2022-08-05T00:16:57.679Z,4.05
2022-08-05T00:21:59.462Z,6.25
2022-08-05T00:27:04.503Z,7.28
2022-08-05T00:32:15.003Z,4.65
2022-08-05T00:37:17.342Z,7.40
2022-08-05T00:42:37.193Z,3.33
2022-08-05T00:47:57.246Z,6.05
2022-08-05T00:53:02.483Z,5.97
2022-08-05T00:58:04.706Z,5.93
2022-08-05T01:03:07.844Z,3.50
2022-08-05T01:08:42.039Z,5.10
2022-08-05T01:13:57.445Z,6.07
2022-08-05T01:19:20.052Z,6.50
2022-08-05T01:24:39.923Z,6.22
2022-08-05T01:29:48.905Z,9.45
2022-08-05T01:34:59.140Z,11.18
2022-08-05T01:40:02.619Z,8.57
2022-08-05T01:45:08.248Z,6.88
2022-08-05T01:50:15.735Z,7.90
2022-08-05T01:55:22.459Z,6.35
2022-08-05T02:00:30.240Z,5.32
2022-08-05T02:05:35.985Z,6.20
2022-08-05T02:10:51.206Z,7.65
2022-08-05T02:16:00.355Z,5.05
2022-08-05T02:21:15.179Z,6.35
2022-08-05T02:26:23.394Z,7.53
2022-08-05T02:31:35.019Z,5.85
2022-08-05T02:36:42.364Z,6.60
2022-08-05T02:42:00.651Z,5.93
2022-08-05T02:47:06.339Z,5.32
2022-08-05T02:52:29.861Z,5.13
2022-08-05T02:58:10.790Z,8.10
2022-08-05T03:02:57.299Z,6.20
2022-08-05T03:08:07.097Z,8.27
2022-08-05T03:13:16.917Z,5.97
2022-08-05T03:18:18.837Z,6.50
2022-08-05T03:23:33.328Z,6.88
2022-08-05T03:28:37.162Z,6.20
2022-08-05T03:33:50.876Z,8.00
2022-08-05T03:38:53.416Z,5.95
2022-08-05T03:44:09.535Z,4.30
2022-08-05T03:49:13.443Z,7.75
2022-08-05T03:55:53.957Z,8.38
2022-08-05T03:59:56.246Z,6.50
2022-08-05T04:05:00.008Z,4.85
2022-08-05T04:10:03.078Z,4.60
2022-08-05T04:15:06.394Z,5.40
2022-08-05T04:20:19.928Z,5.35
2022-08-05T04:25:24.186Z,5.60
2022-08-05T04:30:43.587Z,5.72
2022-08-05T04:36:15.939Z,6.20
2022-08-05T04:41:09.460Z,7.65
2022-08-05T04:46:11.958Z,4.80
2022-08-05T04:51:14.882Z,9.48
2022-08-05T04:56:35.070Z,6.15
2022-08-05T05:02:35.445Z,7.43
2022-08-05T05:06:59.989Z,10.25
2022-08-05T05:12:02.055Z,5.85
2022-08-05T05:17:07.579Z,6.22
2022-08-05T05:22:24.239Z,6.95
2022-08-05T05:27:41.263Z,8.95
2022-08-05T05:32:47.842Z,9.40
2022-08-05T05:38:01.852Z,12.95
2022-08-05T05:43:04.082Z,8.30
2022-08-05T05:48:10.571Z,10.02
2022-08-05T05:53:22.352Z,11.05
2022-08-05T05:58:31.826Z,6.80
2022-08-05T06:03:54.008Z,11.07
2022-08-05T06:08:55.976Z,7.07
2022-08-05T06:13:57.935Z,6.90
2022-08-05T06:19:05.826Z,10.38
2022-08-05T06:24:11.736Z,5.60
2022-08-05T06:29:23.560Z,5.43
2022-08-05T06:34:28.194Z,7.45
2022-08-05T06:39:30.074Z,6.25
2022-08-05T06:44:33.092Z,9.30
2022-08-05T06:50:00.311Z,6.90
2022-08-05T06:54:56.573Z,5.35
2022-08-05T06:59:58.433Z,5.90
2022-08-05T07:05:00.212Z,4.97
2022-08-05T07:10:03.555Z,8.32
2022-08-05T07:15:34.781Z,6.00
2022-08-05T07:20:46.006Z,8.50
2022-08-05T07:25:56.147Z,6.00
2022-08-05T07:30:58.274Z,5.13
2022-08-05T07:36:19.322Z,6.43
2022-08-05T07:42:14.720Z,6.93
2022-08-05T07:46:48.631Z,8.63
2022-08-05T07:51:53.581Z,6.50
2022-08-05T07:57:14.602Z,6.63
2022-08-05T08:02:26.751Z,5.90
2022-08-05T08:07:39.682Z,4.95
2022-08-05T08:12:54.562Z,4.70
2022-08-05T08:18:01.883Z,5.95
2022-08-05T08:23:04.316Z,9.77
2022-08-05T08:28:06.088Z,3.85
2022-08-05T08:33:19.903Z,5.50
2022-08-05T08:38:32.125Z,6.45
2022-08-05T08:45:21.421Z,5.18
2022-08-05T08:50:04.070Z,5.78
2022-08-05T08:54:27.340Z,5.30
2022-08-05T08:59:33.834Z,5.60
2022-08-05T09:04:57.884Z,5.80
2022-08-05T09:10:00.467Z,5.68
2022-08-05T09:15:06.631Z,6.82
2022-08-05T09:20:09.508Z,4.10
2022-08-05T09:25:14.012Z,3.72
2022-08-05T09:30:26.417Z,6.80
2022-08-05T09:35:28.247Z,8.13
2022-08-05T09:40:34.369Z,4.93
2022-08-05T09:46:07.570Z,4.70
2022-08-05T09:51:14.934Z,5.18
2022-08-05T09:56:28.939Z,7.53
2022-08-05T10:01:35.132Z,4.13
2022-08-05T10:06:37.145Z,6.28
2022-08-05T10:11:40.430Z,3.17
2022-08-05T10:16:52.938Z,6.05
2022-08-05T10:21:55.126Z,5.55
2022-08-05T10:27:00.472Z,3.75
2022-08-05T10:32:52.278Z,5.65
2022-08-05T10:37:37.162Z,3.45
2022-08-05T10:42:47.578Z,5.47
2022-08-05T10:48:30.341Z,7.18
2022-08-05T10:53:54.581Z,6.93
2022-08-05T10:59:12.445Z,6.53
2022-08-05T11:04:17.479Z,5.45
2022-08-05T11:09:45.451Z,5.18
2022-08-05T11:15:11.605Z,3.97
2022-08-05T11:20:45.241Z,6.78
2022-08-05T11:26:09.083Z,6.95
2022-08-05T11:31:11.593Z,7.68
2022-08-05T11:36:43.010Z,5.32
2022-08-05T11:42:01.106Z,7.45
2022-08-05T11:47:12.168Z,4.53
2022-08-05T11:52:29.243Z,5.95
2022-08-05T11:58:08.058Z,5.80
2022-08-05T12:02:53.463Z,5.38
2022-08-05T12:08:03.381Z,6.90
2022-08-05T12:13:15.579Z,6.20
2022-08-05T12:18:38.840Z,4.13
2022-08-05T12:23:51.104Z,5.18
2022-08-05T12:28:52.909Z,8.70
2022-08-05T12:33:58.289Z,6.38
2022-08-05T12:39:00.599Z,7.10
2022-08-05T12:44:11.660Z,3.95
2022-08-05T12:49:16.108Z,3.85
2022-08-05T12:54:26.653Z,5.28
2022-08-05T13:00:08.341Z,5.68
2022-08-05T13:04:54.883Z,6.22
2022-08-05T13:10:01.103Z,6.82
2022-08-05T13:15:06.250Z,3.55
2022-08-05T13:20:23.209Z,6.53
2022-08-05T13:25:51.998Z,5.57
2022-08-05T13:30:48.455Z,4.50
2022-08-05T13:35:53.072Z,4.88
2022-08-05T13:40:55.245Z,5.75
2022-08-05T13:45:56.994Z,8.35
2022-08-05T13:51:09.614Z,5.22
2022-08-05T13:56:19.004Z,4.53
2022-08-05T14:01:27.375Z,4.05
2022-08-05T14:06:38.301Z,3.83
2022-08-05T14:12:00.430Z,4.40
2022-08-05T14:17:04.587Z,2.55
2022-08-05T14:22:18.818Z,2.63
2022-08-05T14:27:20.973Z,2.30
2022-08-05T14:32:27.857Z,2.67
2022-08-05T14:37:45.298Z,2.20
2022-08-05T14:42:50.458Z,2.30
2022-08-05T14:48:03.961Z,2.65
2022-08-05T14:53:07.768Z,5.13
2022-08-05T14:58:11.407Z,2.83
2022-08-05T15:03:14.396Z,3.08
2022-08-05T15:08:58.513Z,3.50
2022-08-05T15:13:45.863Z,4.10
2022-08-05T15:18:48.071Z,3.55
2022-08-05T15:23:49.841Z,6.30
2022-08-05T15:28:53.168Z,9.90
2022-08-05T15:34:19.134Z,13.35
2022-08-05T15:41:01.186Z,12.45
2022-08-05T15:44:43.965Z,11.52
2022-08-05T15:49:58.570Z,13.52
2022-08-05T15:55:01.215Z,17.52
2022-08-05T16:00:08.191Z,13.20
2022-08-05T16:05:11.255Z,15.13
2022-08-05T16:10:13.078Z,14.00
2022-08-05T16:15:18.675Z,13.02
2022-08-05T16:20:20.526Z,9.40
2022-08-05T16:25:22.240Z,9.15
2022-08-05T16:30:34.471Z,12.55
2022-08-05T16:35:42.502Z,16.50
2022-08-05T16:40:51.831Z,10.68
2022-08-05T16:46:05.897Z,11.00
2022-08-05T16:51:11.274Z,14.05
2022-08-05T16:56:13.884Z,9.45
2022-08-05T17:01:15.980Z,7.93
2022-08-05T17:06:17.831Z,8.02
2022-08-05T17:11:19.697Z,7.78
2022-08-05T17:16:32.811Z,6.75
2022-08-05T17:21:36.889Z,6.85
2022-08-05T17:26:39.106Z,8.65
2022-08-05T17:31:58.570Z,7.55
2022-08-05T17:37:00.891Z,4.35
2022-08-05T17:42:19.691Z,7.65
2022-08-05T17:47:24.742Z,3.85
2022-08-05T17:52:27.966Z,4.43
2022-08-05T17:57:30.297Z,5.40
2022-08-05T18:02:34.413Z,7.68
2022-08-05T18:07:41.313Z,6.18
2022-08-05T18:12:43.933Z,4.30
2022-08-05T18:18:00.558Z,6.63
2022-08-05T18:23:09.059Z,7.07
2022-08-05T18:28:11.638Z,5.10
2022-08-05T18:33:14.025Z,4.20
2022-08-05T18:38:19.194Z,2.88
2022-08-05T18:43:27.508Z,2.30
2022-08-05T18:48:33.704Z,2.70
2022-08-05T18:53:42.914Z,2.30
2022-08-05T18:58:47.756Z,2.50
2022-08-05T19:03:55.414Z,3.22
2022-08-05T19:08:58.330Z,2.80
2022-08-05T19:14:15.254Z,5.03
2022-08-05T19:19:25.559Z,9.40
2022-08-05T19:24:34.410Z,2.97
2022-08-05T19:29:37.570Z,2.03
2022-08-05T19:34:40.827Z,2.47
2022-08-05T19:39:45.650Z,2.22
2022-08-05T19:44:53.839Z,2.83
2022-08-05T19:50:00.817Z,2.70
2022-08-05T19:55:07.139Z,2.75
2022-08-05T20:00:10.655Z,2.38
2022-08-05T20:05:24.118Z,3.13
2022-08-05T20:10:26.150Z,2.30
2022-08-05T20:15:52.407Z,2.75
2022-08-05T20:20:51.006Z,2.97
2022-08-05T20:25:54.364Z,2.80
2022-08-05T20:30:56.124Z,3.15
2022-08-05T20:35:58.353Z,2.25
2022-08-05T20:41:00.260Z,2.50
2022-08-05T20:46:06.948Z,3.53
2022-08-05T20:51:08.816Z,3.83
2022-08-05T20:56:10.701Z,3.63
2022-08-05T21:01:12.537Z,2.58
2022-08-05T21:06:27.541Z,2.78
2022-08-05T21:12:08.989Z,7.30
2022-08-05T21:16:52.221Z,4.32
2022-08-05T21:21:54.231Z,2.72
2022-08-05T21:26:58.789Z,4.03
2022-08-05T21:32:04.246Z,2.92
2022-08-05T21:37:08.228Z,3.20
2022-08-05T21:42:30.995Z,3.15
2022-08-05T21:47:55.797Z,3.22
2022-08-05T21:52:58.951Z,3.15
2022-08-05T21:58:06.591Z,3.45
2022-08-05T22:03:10.182Z,2.83
2022-08-05T22:08:22.100Z,2.90
2022-08-05T22:14:06.627Z,2.80
2022-08-05T22:18:49.174Z,2.90
2022-08-05T22:24:13.263Z,3.55
2022-08-05T22:29:33.097Z,3.10
2022-08-05T22:34:35.106Z,3.35
2022-08-05T22:39:38.140Z,3.40
2022-08-05T22:44:42.532Z,3.20
2022-08-05T22:50:22.811Z,2.95
2022-08-05T22:55:18.224Z,3.40
2022-08-05T23:00:22.918Z,4.20
2022-08-05T23:05:24.661Z,4.07
2022-08-05T23:10:26.392Z,4.00
2022-08-05T23:15:35.409Z,4.50
2022-08-05T23:20:38.342Z,5.38
2022-08-05T23:25:54.675Z,4.22
2022-08-05T23:31:14.836Z,5.18
2022-08-05T23:36:18.631Z,4.75
2022-08-05T23:41:21.004Z,4.68
2022-08-05T23:46:23.627Z,4.45
2022-08-05T23:51:25.357Z,4.88
2022-08-05T23:56:27.907Z,3.20
